Time;durP1;ratioP1;P1;durP2;ratioP2;P2;SDS_P1;SDS_P2;PMS_P1;PMS_P2;Temp;Humidity;BMP_temperature;BMP_pressure;BME280_temperature;BME280_humidity;BME280_pressure;Samples;Min_cycle;Max_cycle;Signal;HPM_P1;HPM_P2
2023/08/04 00:01:16;;;;;;;;;14.60;13.00;;;;;16.10;83.74;99219.94;4976824;28;8849;-60
2023/08/04 00:03:44;;;;;;;;;14.80;14.60;;;;;16.08;84.32;99216.59;4977041;28;8903;-57
2023/08/04 00:06:11;;;;;;;;;12.40;12.20;;;;;16.07;84.28;99226.47;4977242;28;8848;-57
2023/08/04 00:08:39;;;;;;;;;12.20;11.20;;;;;16.07;83.65;99222.97;4976823;28;8832;-58
2023/08/04 00:11:07;;;;;;;;;16.00;14.20;;;;;16.05;84.20;99224.97;4976662;28;8943;-60
2023/08/04 00:13:34;;;;;;;;;9.20;9.20;;;;;16.04;83.96;99228.69;4977415;28;8867;-60
2023/08/04 00:16:02;;;;;;;;;10.60;8.80;;;;;16.04;84.00;99231.38;4976567;28;8829;-60
2023/08/04 00:18:30;;;;;;;;;12.40;10.40;;;;;16.03;84.01;99229.69;4976511;28;8813;-57
2023/08/04 00:20:58;;;;;;;;;6.60;6.60;;;;;16.02;83.79;99231.56;4976953;28;8821;-57
2023/08/04 00:23:25;;;;;;;;;9.40;9.00;;;;;16.01;83.92;99237.09;4977171;28;8824;-58
2023/08/04 00:25:53;;;;;;;;;10.20;9.20;;;;;16.01;83.96;99234.41;4977027;28;8879;-59
2023/08/04 00:28:22;;;;;;;;;7.00;6.40;;;;;16.00;84.38;99238.94;4977096;28;8848;-59
2023/08/04 00:30:49;;;;;;;;;8.00;7.80;;;;;15.99;84.54;99237.25;4977237;28;8841;-58
2023/08/04 00:33:17;;;;;;;;;9.60;9.20;;;;;15.98;84.01;99232.06;4977140;28;8817;-58
2023/08/04 00:35:44;;;;;;;;;7.00;7.00;;;;;15.98;84.63;99242.78;4977302;28;8829;-59
2023/08/04 00:38:12;;;;;;;;;10.00;8.20;;;;;15.97;84.35;99241.13;4976117;28;8942;-58
2023/08/04 00:40:40;;;;;;;;;7.00;7.00;;;;;15.96;84.10;99250.19;4977014;28;8841;-58
2023/08/04 00:43:08;;;;;;;;;6.20;4.00;;;;;15.96;84.49;99244.81;4977065;28;8825;-60
2023/08/04 00:45:35;;;;;;;;;11.60;9.80;;;;;15.97;84.07;99249.19;4976477;28;8817;-59
2023/08/04 00:48:03;;;;;;;;;10.80;9.80;;;;;15.95;83.70;99246.69;4977113;28;9007;-58
2023/08/04 00:50:31;;;;;;;;;7.40;7.40;;;;;15.97;84.67;99249.19;4976864;28;8825;-59
2023/08/04 00:52:59;;;;;;;;;11.20;9.00;;;;;15.96;84.24;99256.41;4976614;28;8820;-58
2023/08/04 00:55:27;;;;;;;;;7.80;7.80;;;;;15.96;84.32;99255.56;4976825;28;8851;-59
2023/08/04 00:57:54;;;;;;;;;9.00;7.40;;;;;15.97;84.05;99251.88;4977019;28;8856;-57
2023/08/04 01:00:22;;;;;;;;;10.40;10.40;;;;;15.97;84.48;99251.88;4976336;28;8908;-60
2023/08/04 01:02:50;;;;;;;;;9.00;7.80;;;;;15.95;83.98;99254.75;4977053;28;9519;-57
2023/08/04 01:05:18;;;;;;;;;9.20;7.40;;;;;15.94;84.09;99262.97;4976754;28;9515;-58
2023/08/04 01:07:46;;;;;;;;;9.20;9.20;;;;;15.89;84.41;99260.81;4976574;28;8951;-60
2023/08/04 01:10:14;;;;;;;;;10.00;7.40;;;;;15.86;84.25;99257.63;4976401;28;8843;-58
2023/08/04 01:12:41;;;;;;;;;9.00;7.00;;;;;15.82;84.19;99267.00;4976430;28;8848;-59
2023/08/04 01:15:09;;;;;;;;;10.80;9.40;;;;;15.79;84.50;99264.69;4976710;28;8824;-58
2023/08/04 01:17:37;;;;;;;;;13.40;12.20;;;;;15.77;84.74;99266.72;4976247;28;8829;-58
2023/08/04 01:20:05;;;;;;;;;9.00;7.80;;;;;15.76;84.57;99268.53;4976362;28;9614;-58
2023/08/04 01:22:33;;;;;;;;;8.60;6.80;;;;;15.75;84.77;99264.19;4976800;28;8832;-58
2023/08/04 01:25:01;;;;;;;;;9.80;9.40;;;;;15.75;84.10;99261.50;4979614;28;8840;-59
2023/08/04 01:27:28;;;;;;;;;8.60;7.00;;;;;15.78;84.55;99273.75;4979958;28;8858;-58
2023/08/04 01:29:56;;;;;;;;;9.00;9.00;;;;;15.76;84.70;99271.22;4979690;28;8844;-58
2023/08/04 01:32:24;;;;;;;;;6.60;6.40;;;;;15.76;84.36;99275.78;4979867;28;8831;-58
2023/08/04 01:34:52;;;;;;;;;7.00;7.00;;;;;15.74;84.33;99277.78;4979930;28;8840;-58
2023/08/04 01:37:19;;;;;;;;;9.00;9.00;;;;;15.74;84.42;99278.63;4979996;28;8829;-59
2023/08/04 01:39:47;;;;;;;;;10.00;9.00;;;;;15.73;84.62;99284.16;4979611;28;8809;-58
2023/08/04 01:42:15;;;;;;;;;9.00;7.00;;;;;15.73;84.35;99287.69;4980199;28;9549;-58
2023/08/04 01:44:42;;;;;;;;;7.40;6.20;;;;;15.74;84.70;99288.50;4979467;28;8843;-58
2023/08/04 01:47:10;;;;;;;;;7.00;6.60;;;;;15.73;84.73;99289.53;4979537;28;8844;-60
2023/08/04 01:49:39;;;;;;;;;3.00;3.00;;;;;15.73;83.97;99297.56;4979511;28;8834;-58
2023/08/04 01:52:07;;;;;;;;;5.20;5.20;;;;;15.73;84.79;99297.56;4979206;28;8918;-60
2023/08/04 01:54:35;;;;;;;;;5.20;5.20;;;;;15.74;84.74;99300.09;4979085;28;8856;-58
2023/08/04 01:57:02;;;;;;;;;8.00;6.40;;;;;15.74;84.19;99285.81;4978280;28;8828;-58
2023/08/04 01:59:30;;;;;;;;;5.20;4.00;;;;;15.76;84.69;99291.88;4977637;28;8844;-58
2023/08/04 02:01:58;;;;;;;;;8.60;7.80;;;;;15.78;84.48;99295.22;4979105;28;8840;-60
2023/08/04 02:04:26;;;;;;;;;9.60;8.80;;;;;15.81;85.03;99292.19;4979344;28;8851;-58
2023/08/04 02:06:53;;;;;;;;;11.00;8.20;;;;;15.80;84.37;99291.38;4979243;28;8883;-60
2023/08/04 02:09:22;;;;;;;;;8.60;8.60;;;;;15.81;84.35;99292.19;4978870;28;8840;-58
2023/08/04 02:11:50;;;;;;;;;6.80;6.60;;;;;15.78;83.93;99284.50;4979041;28;8828;-60
2023/08/04 02:14:18;;;;;;;;;7.00;7.00;;;;;15.77;84.79;99293.56;4979077;28;8820;-60
2023/08/04 02:16:46;;;;;;;;;6.20;5.60;;;;;15.74;84.03;99284.00;4979224;28;8867;-59
2023/08/04 02:19:13;;;;;;;;;9.80;8.60;;;;;15.71;84.23;99292.38;4979106;28;8836;-60
2023/08/04 02:21:41;;;;;;;;;6.80;6.80;;;;;15.69;84.26;99290.88;4978634;28;8844;-61
2023/08/04 02:24:09;;;;;;;;;5.80;5.60;;;;;15.67;84.97;99291.06;4978530;28;8971;-58
2023/08/04 02:26:36;;;;;;;;;4.00;4.00;;;;;15.63;84.55;99295.06;4978534;28;8825;-60
2023/08/04 02:29:04;;;;;;;;;9.80;9.00;;;;;15.61;84.97;99291.72;4977981;28;8832;-60
2023/08/04 02:31:32;;;;;;;;;7.60;5.20;;;;;15.60;84.59;99295.41;4977975;28;8845;-60
2023/08/04 02:34:00;;;;;;;;;9.00;7.00;;;;;15.60;85.06;99299.94;4977675;28;8832;-60
2023/08/04 02:36:28;;;;;;;;;6.80;6.80;;;;;15.59;85.07;99296.44;4978506;28;8951;-58
2023/08/04 02:38:56;;;;;;;;;4.00;3.80;;;;;15.59;85.12;99291.06;4978197;28;8832;-58
2023/08/04 02:41:24;;;;;;;;;7.40;6.80;;;;;15.59;85.09;99295.56;4978518;28;8809;-58
2023/08/04 02:43:51;;;;;;;;;7.20;7.20;;;;;15.59;84.73;99301.78;4977974;28;8864;-59
2023/08/04 02:46:20;;;;;;;;;11.50;10.00;;;;;15.59;84.92;99299.13;4978340;28;8832;-60
2023/08/04 02:48:48;;;;;;;;;8.60;8.20;;;;;15.59;85.02;99300.94;4977807;28;8829;-60
2023/08/04 02:51:15;;;;;;;;;9.20;8.20;;;;;15.58;84.62;99300.13;4978311;28;8852;-59
2023/08/04 02:53:43;;;;;;;;;9.00;9.00;;;;;15.59;85.16;99301.78;4978596;28;8825;-58
2023/08/04 02:56:11;;;;;;;;;6.50;6.50;;;;;15.58;84.67;99304.63;4978360;28;8820;-59
2023/08/04 02:58:38;;;;;;;;;9.00;7.00;;;;;15.57;84.77;99308.34;4978429;28;8825;-58
2023/08/04 03:01:06;;;;;;;;;10.25;8.50;;;;;15.55;85.14;99313.88;4978773;28;9565;-60
2023/08/04 03:03:34;;;;;;;;;12.00;10.00;;;;;15.56;84.99;99312.03;4978169;28;8828;-59
2023/08/04 03:06:01;;;;;;;;;6.00;6.00;;;;;15.57;84.60;99308.34;4978477;28;8824;-59
2023/08/04 03:08:29;;;;;;;;;8.60;8.60;;;;;15.57;85.36;99319.94;4977955;28;8860;-60
2023/08/04 03:10:56;;;;;;;;;8.60;6.60;;;;;15.59;84.63;99319.72;4977860;28;8809;-60
2023/08/04 03:13:24;;;;;;;;;6.40;6.40;;;;;15.59;84.45;99317.91;4978459;28;8825;-60
2023/08/04 03:15:52;;;;;;;;;9.00;7.40;;;;;15.60;85.07;99318.72;4978236;28;8824;-60
2023/08/04 03:18:19;;;;;;;;;9.60;9.00;;;;;15.63;85.22;99334.50;4978252;28;8855;-59
2023/08/04 03:20:47;;;;;;;;;9.00;9.00;;;;;15.64;84.81;99330.81;4977738;28;8805;-60
2023/08/04 03:23:15;;;;;;;;;11.00;9.75;;;;;15.65;84.88;99332.47;4978000;28;8851;-60
2023/08/04 03:25:43;;;;;;;;;11.50;10.00;;;;;15.66;84.29;99328.78;4977627;28;8825;-59
2023/08/04 03:28:10;;;;;;;;;9.20;8.60;;;;;15.66;84.85;99335.00;4977784;28;8828;-60
2023/08/04 03:30:38;;;;;;;;;12.20;9.00;;;;;15.66;84.91;99334.16;4977385;28;8856;-58
2023/08/04 03:33:05;;;;;;;;;15.80;12.40;;;;;15.68;84.83;99338.34;4977238;28;8871;-58
2023/08/04 03:35:33;;;;;;;;;10.80;9.00;;;;;15.70;84.34;99341.69;4977759;28;8851;-57
2023/08/04 03:38:01;;;;;;;;;13.75;11.25;;;;;15.72;84.50;99345.09;4977424;28;8828;-60
2023/08/04 03:40:29;;;;;;;;;9.00;7.00;;;;;15.73;84.63;99346.75;4977346;28;8840;-58
2023/08/04 03:42:57;;;;;;;;;12.60;11.60;;;;;15.73;84.42;99346.75;4977680;28;8862;-60
2023/08/04 03:45:25;;;;;;;;;9.00;6.40;;;;;15.73;84.57;99343.22;4976705;28;8816;-57
2023/08/04 03:47:52;;;;;;;;;14.40;11.00;;;;;15.74;84.30;99352.94;4977377;28;8828;-56
2023/08/04 03:50:20;;;;;;;;;10.40;10.00;;;;;15.74;84.24;99347.56;4976943;28;8940;-58
2023/08/04 03:52:48;;;;;;;;;12.00;12.00;;;;;15.75;84.42;99354.63;4977313;28;8828;-57
2023/08/04 03:55:15;;;;;;;;;13.20;11.40;;;;;15.75;84.93;99355.47;4977640;28;8916;-57
2023/08/04 03:57:43;;;;;;;;;9.80;7.40;;;;;15.77;84.33;99358.00;4977332;28;8836;-60
2023/08/04 04:00:10;;;;;;;;;10.80;10.40;;;;;15.78;84.82;99354.31;4977257;28;8971;-58
2023/08/04 04:02:38;;;;;;;;;12.40;11.00;;;;;15.79;84.29;99361.34;4977271;28;8848;-58
2023/08/04 04:05:06;;;;;;;;;12.80;10.80;;;;;15.80;84.08;99363.00;4977253;28;8840;-60
2023/08/04 04:07:34;;;;;;;;;10.40;9.60;;;;;15.80;84.40;99355.81;4977206;28;8840;-60
2023/08/04 04:10:01;;;;;;;;;13.00;11.20;;;;;15.81;84.27;99362.00;4977017;28;8856;-59
2023/08/04 04:12:29;;;;;;;;;12.00;10.60;;;;;15.82;84.11;99361.00;4977544;28;8841;-60
2023/08/04 04:14:56;;;;;;;;;12.80;12.00;;;;;15.82;84.71;99366.38;4977063;28;8852;-58
2023/08/04 04:17:24;;;;;;;;;11.60;11.60;;;;;15.82;84.43;99363.69;4977024;28;8844;-59
2023/08/04 04:19:52;;;;;;;;;15.40;13.80;;;;;15.81;84.12;99368.22;4976577;28;8793;-58
2023/08/04 04:22:19;;;;;;;;;14.60;12.60;;;;;15.81;84.63;99367.38;4977302;28;9483;-58
2023/08/04 04:24:47;;;;;;;;;10.00;9.00;;;;;15.79;84.60;99364.84;4976749;28;8852;-58
2023/08/04 04:27:15;;;;;;;;;10.80;9.80;;;;;15.78;84.20;99362.34;4976690;28;8828;-60
2023/08/04 04:29:43;;;;;;;;;15.00;12.80;;;;;15.77;84.59;99371.41;4976508;28;8876;-60
2023/08/04 04:32:11;;;;;;;;;7.80;6.40;;;;;15.77;84.49;99368.72;4976659;28;8854;-58
2023/08/04 04:34:39;;;;;;;;;15.75;15.25;;;;;15.76;84.44;99373.25;4976656;28;8840;-58
2023/08/04 04:37:06;;;;;;;;;12.60;12.60;;;;;15.77;84.77;99379.47;4976103;28;8875;-57
2023/08/04 04:39:34;;;;;;;;;12.80;10.00;;;;;15.76;84.97;99384.00;4976526;28;8875;-58
2023/08/04 04:42:02;;;;;;;;;13.40;12.60;;;;;15.79;84.67;99389.00;4975616;28;8841;-58
2023/08/04 04:44:30;;;;;;;;;16.80;15.00;;;;;15.81;84.16;99394.22;4975836;28;8847;-58
2023/08/04 04:46:58;;;;;;;;;15.20;8.80;;;;;15.84;84.26;99394.72;4976191;28;8935;-59
2023/08/04 04:49:25;;;;;;;;;13.00;12.20;;;;;15.86;84.31;99398.06;4975338;28;8855;-59
2023/08/04 04:51:53;;;;;;;;;17.60;15.60;;;;;15.87;84.48;99398.94;4975861;28;8854;-58
2023/08/04 04:54:21;;;;;;;;;16.00;14.50;;;;;15.90;84.61;99401.25;4975553;28;8835;-59
2023/08/04 04:56:49;;;;;;;;;17.20;13.80;;;;;15.91;84.08;99401.09;4976062;28;8840;-59
2023/08/04 04:59:17;;;;;;;;;13.80;13.20;;;;;15.93;83.81;99404.44;4979070;28;8844;-57
2023/08/04 05:01:44;;;;;;;;;13.80;13.40;;;;;15.96;83.94;99405.97;4979588;28;8867;-60
2023/08/04 05:04:13;;;;;;;;;19.60;13.60;;;;;15.98;84.10;99407.47;4979709;28;8852;-58
2023/08/04 05:06:41;;;;;;;;;15.80;15.00;;;;;15.99;84.44;99408.34;4979766;28;9507;-57
2023/08/04 05:09:09;;;;;;;;;14.00;13.75;;;;;16.00;83.70;99401.94;4979846;28;9502;-59
2023/08/04 05:11:36;;;;;;;;;9.60;8.40;;;;;16.00;83.79;99412.69;4979212;28;8866;-59
2023/08/04 05:14:04;;;;;;;;;10.20;9.00;;;;;16.00;83.42;99407.31;4980139;28;8840;-57
2023/08/04 05:16:32;;;;;;;;;16.80;15.20;;;;;16.00;83.87;99416.19;4979653;28;8875;-60
2023/08/04 05:19:00;;;;;;;;;14.60;12.80;;;;;16.01;83.72;99409.00;4979046;28;8820;-58
2023/08/04 05:21:28;;;;;;;;;15.40;15.00;;;;;16.01;83.75;99403.63;4979338;28;8828;-58
2023/08/04 05:23:55;;;;;;;;;20.20;15.40;;;;;16.02;84.01;99405.28;4979681;28;8844;-58
2023/08/04 05:26:23;;;;;;;;;17.60;14.80;;;;;16.02;83.81;99416.03;4979681;28;8821;-58
2023/08/04 05:28:51;;;;;;;;;20.40;18.60;;;;;16.01;83.73;99414.38;4979314;28;8867;-58
2023/08/04 05:31:18;;;;;;;;;15.00;13.60;;;;;16.02;83.96;99421.41;4979740;28;8844;-60
2023/08/04 05:33:46;;;;;;;;;15.00;14.00;;;;;16.03;83.44;99418.56;4979617;28;8828;-58
2023/08/04 05:36:14;;;;;;;;;19.00;15.00;;;;;16.04;84.18;99416.69;4978887;28;8975;-60
2023/08/04 05:38:43;;;;;;;;;18.00;16.50;;;;;16.05;83.93;99424.59;4979381;28;9564;-59
2023/08/04 05:41:11;;;;;;;;;15.60;15.00;;;;;16.05;83.80;99423.75;4979271;28;8836;-57
2023/08/04 05:43:39;;;;;;;;;19.20;13.60;;;;;16.06;84.27;99425.41;4977787;28;8828;-58
2023/08/04 05:46:07;;;;;;;;;19.40;12.80;;;;;16.09;84.25;99423.22;4977117;28;8851;-59
2023/08/04 05:48:34;;;;;;;;;16.80;12.80;;;;;16.12;83.72;99427.44;4976365;28;8852;-59
2023/08/04 05:51:02;;;;;;;;;19.75;16.50;;;;;16.15;83.80;99432.50;4976918;28;8828;-58
2023/08/04 05:53:30;;;;;;;;;18.60;15.60;;;;;16.17;83.81;99428.63;4976764;28;8855;-59
2023/08/04 05:55:58;;;;;;;;;21.80;15.20;;;;;16.21;84.11;99427.25;4977236;28;8874;-58
2023/08/04 05:58:25;;;;;;;;;15.80;13.40;;;;;16.23;84.04;99425.22;4977953;28;8959;-58
2023/08/04 06:00:53;;;;;;;;;18.40;17.40;;;;;16.25;83.96;99434.81;4977957;28;8844;-60
2023/08/04 06:03:21;;;;;;;;;22.00;21.00;;;;;16.29;83.84;99440.69;4977888;28;8829;-58
2023/08/04 06:05:48;;;;;;;;;11.60;10.80;;;;;16.32;83.55;99443.88;4977194;28;8854;-58
2023/08/04 06:08:16;;;;;;;;;10.00;6.80;;;;;16.39;83.54;99446.75;4976700;28;8829;-58
2023/08/04 06:10:44;;;;;;;;;17.80;15.40;;;;;16.45;83.28;99441.53;4977668;28;8836;-58
2023/08/04 06:13:12;;;;;;;;;16.00;15.60;;;;;16.52;83.15;99444.38;4977900;28;8844;-60
2023/08/04 06:15:40;;;;;;;;;18.80;15.40;;;;;16.57;82.70;99437.47;4977319;28;9631;-60
2023/08/04 06:18:08;;;;;;;;;20.00;18.20;;;;;16.62;83.18;99445.84;4977291;28;8890;-58
2023/08/04 06:20:35;;;;;;;;;17.20;15.00;;;;;16.66;83.07;99441.81;4977494;28;8817;-58
2023/08/04 06:23:03;;;;;;;;;18.20;18.00;;;;;16.72;82.44;99445.66;4977598;28;8853;-60
2023/08/04 06:25:31;;;;;;;;;18.60;16.80;;;;;16.77;82.71;99451.34;4977522;28;8833;-58
2023/08/04 06:27:58;;;;;;;;;13.00;12.00;;;;;16.81;82.36;99453.53;4977120;28;8832;-58
2023/08/04 06:30:26;;;;;;;;;23.20;18.20;;;;;16.86;82.30;99453.84;4976816;28;8844;-59
2023/08/04 06:32:54;;;;;;;;;18.40;15.40;;;;;16.93;82.08;99462.91;4976684;28;8848;-60
2023/08/04 06:35:22;;;;;;;;;12.00;12.00;;;;;16.98;82.39;99463.22;4976908;28;8832;-59
2023/08/04 06:37:51;;;;;;;;;11.80;10.40;;;;;17.05;82.44;99458.81;4976754;28;8963;-58
2023/08/04 06:40:19;;;;;;;;;17.80;15.00;;;;;17.12;81.93;99473.25;4976525;28;8858;-60
2023/08/04 06:42:46;;;;;;;;;21.60;17.80;;;;;17.16;81.93;99471.88;4975796;28;8970;-59
2023/08/04 06:45:15;;;;;;;;;18.20;16.40;;;;;17.19;81.58;99468.84;4975689;28;9598;-61
2023/08/04 06:47:42;;;;;;;;;18.00;16.80;;;;;17.24;81.66;99469.16;4975371;28;8928;-58
2023/08/04 06:50:10;;;;;;;;;13.40;12.20;;;;;17.30;81.92;99475.72;4975531;28;8925;-58
2023/08/04 06:52:38;;;;;;;;;16.80;15.40;;;;;17.34;81.98;99480.56;4976086;28;8860;-59
2023/08/04 06:55:06;;;;;;;;;21.60;18.20;;;;;17.40;81.69;99487.13;4976187;28;8837;-59
2023/08/04 06:57:34;;;;;;;;;13.40;7.40;;;;;17.40;81.14;99487.94;4976043;28;8847;-59
2023/08/04 07:00:02;;;;;;;;;20.20;15.60;;;;;17.48;81.46;99489.75;4975304;28;8861;-59
2023/08/04 07:02:30;;;;;;;;;15.00;14.20;;;;;17.56;81.10;99497.78;4974942;28;8910;-59
2023/08/04 07:04:58;;;;;;;;;13.80;12.80;;;;;17.62;80.97;99489.84;4974015;28;8864;-60
2023/08/04 07:07:26;;;;;;;;;21.40;19.60;;;;;17.72;81.00;99492.31;4975561;28;8868;-59
2023/08/04 07:09:55;;;;;;;;;13.00;10.40;;;;;17.82;80.67;99504.53;4975361;28;8824;-60
2023/08/04 07:12:23;;;;;;;;;12.00;10.40;;;;;17.90;80.88;99496.38;4974218;28;9310;-59
2023/08/04 07:14:50;;;;;;;;;18.00;13.60;;;;;17.92;80.35;99499.72;4975020;28;8914;-60
2023/08/04 07:17:20;;;;;;;;;13.40;12.00;;;;;17.87;80.90;99502.16;4975773;28;8871;-58
2023/08/04 07:19:48;;;;;;;;;21.20;18.20;;;;;17.82;80.79;99500.97;4974715;28;8828;-57
2023/08/04 07:22:17;;;;;;;;;15.00;12.60;;;;;17.82;81.10;99504.53;4975444;28;8967;-59
2023/08/04 07:24:47;;;;;;;;;12.60;12.00;;;;;17.94;80.62;99508.50;4975082;28;8840;-59
2023/08/04 07:27:15;;;;;;;;;12.80;11.60;;;;;18.09;80.52;99501.31;4975385;28;8946;-60
2023/08/04 07:29:43;;;;;;;;;6.20;5.20;;;;;18.27;79.69;99509.06;4973665;28;8876;-59
2023/08/04 07:32:10;;;;;;;;;14.20;11.20;;;;;18.47;79.87;99507.59;4974190;28;8975;-59
2023/08/04 07:34:38;;;;;;;;;18.00;15.40;;;;;18.65;79.40;99508.91;4974084;28;8874;-57
2023/08/04 07:37:06;;;;;;;;;10.60;10.40;;;;;18.69;79.43;99517.50;4974189;28;8849;-59
2023/08/04 07:39:34;;;;;;;;;13.80;12.00;;;;;18.64;79.02;99501.84;4975153;28;9549;-58
2023/08/04 07:42:02;;;;;;;;;12.00;10.80;;;;;18.59;79.22;99520.44;4975247;28;8844;-59
2023/08/04 07:44:30;;;;;;;;;14.60;12.00;;;;;18.52;79.48;99519.50;4975714;28;8857;-59
2023/08/04 07:46:59;;;;;;;;;12.20;11.80;;;;;18.47;79.81;99515.66;4975925;28;8837;-58
2023/08/04 07:49:28;;;;;;;;;12.60;10.20;;;;;18.46;79.67;99520.25;4975820;28;8955;-60
2023/08/04 07:51:55;;;;;;;;;9.60;8.80;;;;;18.53;79.99;99515.78;4975923;28;8851;-58
2023/08/04 07:54:23;;;;;;;;;13.80;11.80;;;;;18.58;79.55;99518.78;4975779;28;8851;-59
2023/08/04 07:56:51;;;;;;;;;12.60;12.00;;;;;18.65;79.70;99519.72;4975898;28;8844;-58
2023/08/04 07:59:19;;;;;;;;;7.80;6.80;;;;;18.67;79.59;99522.25;4976192;28;8967;-60
2023/08/04 08:01:47;;;;;;;;;12.00;11.20;;;;;18.72;79.60;99520.66;4975369;28;8842;-58
2023/08/04 08:04:15;;;;;;;;;9.60;9.60;;;;;18.79;79.36;99516.19;4975418;28;8915;-58
2023/08/04 08:06:43;;;;;;;;;12.00;9.80;;;;;18.84;78.81;99524.59;4974471;28;8832;-59
2023/08/04 08:09:12;;;;;;;;;10.00;9.60;;;;;18.84;79.03;99518.34;4975071;28;8824;-59
2023/08/04 08:11:39;;;;;;;;;10.20;9.20;;;;;18.83;79.29;99520.19;4974920;28;8848;-58
2023/08/04 08:14:07;;;;;;;;;10.00;9.40;;;;;18.84;79.64;99521.03;4975830;28;8853;-60
2023/08/04 08:16:35;;;;;;;;;8.60;7.80;;;;;18.92;79.17;99527.22;4974748;28;8875;-59
2023/08/04 08:19:03;;;;;;;;;12.40;11.20;;;;;19.03;78.76;99526.72;4974164;28;8926;-59
2023/08/04 08:21:32;;;;;;;;;9.80;8.00;;;;;19.16;78.56;99528.78;4974930;28;8951;-60
2023/08/04 08:24:00;;;;;;;;;12.60;10.40;;;;;19.31;78.22;99525.09;4974510;28;8841;-59
2023/08/04 08:26:28;;;;;;;;;12.80;11.20;;;;;19.55;78.05;99519.38;4974165;28;8825;-59
2023/08/04 08:28:56;;;;;;;;;10.40;9.80;;;;;19.87;76.60;99524.31;4974729;28;8832;-58
2023/08/04 08:31:24;;;;;;;;;9.60;7.20;;;;;20.18;76.09;99518.66;4974281;28;8880;-60
2023/08/04 08:33:52;;;;;;;;;9.00;9.00;;;;;20.29;75.94;99518.97;4978999;28;8840;-58
2023/08/04 08:36:20;;;;;;;;;10.00;8.40;;;;;20.26;75.88;99522.03;4979054;28;8927;-59
2023/08/04 08:38:48;;;;;;;;;9.60;9.60;;;;;20.24;76.25;99531.41;4979000;28;8841;-59
2023/08/04 08:41:16;;;;;;;;;11.60;10.00;;;;;20.24;76.26;99532.22;4978465;28;8864;-59
2023/08/04 08:43:44;;;;;;;;;7.00;6.60;;;;;20.24;76.06;99537.63;4978880;28;9021;-61
2023/08/04 08:46:12;;;;;;;;;11.40;9.20;;;;;20.15;76.55;99538.81;4978778;28;8828;-60
2023/08/04 08:48:40;;;;;;;;;9.80;9.80;;;;;19.96;76.70;99539.38;4978671;28;8984;-59
2023/08/04 08:51:08;;;;;;;;;10.80;9.60;;;;;19.76;77.44;99529.38;4978496;28;8848;-61
2023/08/04 08:53:36;;;;;;;;;10.60;10.20;;;;;19.57;77.73;99547.03;4979100;28;8829;-60
2023/08/04 08:56:04;;;;;;;;;9.80;7.20;;;;;19.40;78.74;99544.72;4979238;28;8900;-59
2023/08/04 08:58:32;;;;;;;;;6.80;6.80;;;;;19.26;79.07;99551.81;4978990;28;8841;-59
2023/08/04 09:01:00;;;;;;;;;8.00;8.00;;;;;19.15;78.80;99551.41;4979425;28;8942;-59
2023/08/04 09:03:28;;;;;;;;;10.00;7.00;;;;;19.07;79.16;99552.34;4978218;28;8856;-59
2023/08/04 09:05:56;;;;;;;;;9.40;8.20;;;;;19.01;79.27;99555.78;4978235;28;9527;-59
2023/08/04 09:08:24;;;;;;;;;8.00;7.00;;;;;19.01;79.11;99554.94;4978019;28;8955;-59
2023/08/04 09:10:52;;;;;;;;;8.00;8.00;;;;;19.04;79.81;99562.69;4978059;28;8907;-59
2023/08/04 09:13:20;;;;;;;;;8.80;8.80;;;;;19.08;78.91;99561.25;4977521;28;8844;-59
2023/08/04 09:15:48;;;;;;;;;12.40;9.60;;;;;19.13;78.69;99559.69;4977689;28;8844;-58
2023/08/04 09:18:15;;;;;;;;;9.40;9.20;;;;;19.20;78.64;99563.34;4977608;28;8903;-59
2023/08/04 09:20:43;;;;;;;;;9.00;7.20;;;;;19.28;78.07;99570.53;4979611;28;8840;-60
2023/08/04 09:23:11;;;;;;;;;12.40;11.00;;;;;19.36;78.07;99565.84;4979795;28;8848;-61
2023/08/04 09:25:39;;;;;;;;;11.20;10.00;;;;;19.44;78.21;99568.50;4978433;28;9650;-59
2023/08/04 09:28:07;;;;;;;;;7.40;7.40;;;;;19.50;77.82;99565.00;4978918;28;8964;-61
2023/08/04 09:30:35;;;;;;;;;9.20;9.20;;;;;19.54;77.89;99568.19;4978994;28;8852;-61
2023/08/04 09:33:03;;;;;;;;;8.00;7.00;;;;;19.59;77.63;99568.47;4978414;28;8979;-60
2023/08/04 09:35:31;;;;;;;;;11.60;11.00;;;;;19.67;78.05;99571.06;4978355;28;9551;-61
2023/08/04 09:38:01;;;;;;;;;8.40;8.00;;;;;19.70;77.66;99563.41;4977784;28;8832;-59
2023/08/04 09:40:29;;;;;;;;;9.80;8.40;;;;;19.72;77.74;99572.16;4977696;28;8963;-60
2023/08/04 09:42:57;;;;;;;;;10.60;10.00;;;;;19.71;77.56;99578.59;4976738;28;9503;-61
2023/08/04 09:45:25;;;;;;;;;10.60;9.00;;;;;19.73;77.63;99581.13;4977014;28;8828;-61
2023/08/04 09:47:53;;;;;;;;;10.80;10.00;;;;;19.78;77.60;99568.72;4977806;28;8832;-61
2023/08/04 09:50:22;;;;;;;;;8.40;8.20;;;;;19.88;76.86;99566.53;4978411;28;8843;-59
2023/08/04 09:52:49;;;;;;;;;10.40;10.20;;;;;20.02;76.56;99565.66;4978184;28;8971;-60
2023/08/04 09:55:18;;;;;;;;;9.60;8.40;;;;;20.23;76.20;99562.16;4977536;28;8848;-61
2023/08/04 09:57:46;;;;;;;;;7.80;7.80;;;;;20.48;75.41;99569.69;4977303;28;8844;-61
2023/08/04 10:00:14;;;;;;;;;11.20;8.40;;;;;20.75;75.09;99566.22;4976820;28;8855;-61
2023/08/04 10:02:42;;;;;;;;;9.60;7.80;;;;;20.96;74.17;99571.63;4977511;28;8836;-59
2023/08/04 10:05:10;;;;;;;;;7.20;5.80;;;;;21.06;74.31;99562.13;4976737;28;8847;-58
2023/08/04 10:07:38;;;;;;;;;7.60;7.40;;;;;21.18;74.28;99565.94;4977458;28;8845;-61
2023/08/04 10:10:07;;;;;;;;;9.40;9.20;;;;;21.31;74.20;99557.91;4976870;28;8836;-61
2023/08/04 10:12:35;;;;;;;;;7.80;7.80;;;;;21.41;73.51;99569.19;4977066;28;8828;-60
2023/08/04 10:15:05;;;;;;;;;7.80;7.00;;;;;21.47;73.75;99571.13;4976770;28;8837;-59
2023/08/04 10:17:33;;;;;;;;;10.00;8.80;;;;;21.49;73.62;99570.91;4976164;28;9022;-59
2023/08/04 10:20:01;;;;;;;;;8.00;7.00;;;;;21.47;73.49;99576.53;4976191;28;8839;-59
2023/08/04 10:22:29;;;;;;;;;4.60;4.40;;;;;21.45;74.02;99566.94;4976988;28;8846;-59
2023/08/04 10:24:57;;;;;;;;;8.80;7.60;;;;;21.47;73.31;99575.69;4975763;28;8913;-62
2023/08/04 10:27:25;;;;;;;;;9.20;7.80;;;;;21.47;73.56;99579.25;4976382;28;8915;-60
2023/08/04 10:29:53;;;;;;;;;8.60;8.40;;;;;21.41;73.78;99580.03;4976361;28;8845;-60
2023/08/04 10:32:21;;;;;;;;;11.00;10.40;;;;;21.40;74.13;99581.06;4976299;28;8851;-60
2023/08/04 10:34:50;;;;;;;;;10.80;10.80;;;;;21.39;74.18;99583.97;4975743;28;9545;-60
2023/08/04 10:37:19;;;;;;;;;7.80;7.40;;;;;21.47;73.41;99591.94;4975655;28;8942;-59
2023/08/04 10:39:47;;;;;;;;;10.00;8.20;;;;;21.53;73.43;99574.88;4975879;28;8851;-60
2023/08/04 10:42:15;;;;;;;;;8.00;7.40;;;;;21.64;73.72;99579.75;4975243;28;8922;-59
2023/08/04 10:44:43;;;;;;;;;4.20;4.00;;;;;21.79;72.87;99577.78;4973756;28;8862;-62
2023/08/04 10:47:11;;;;;;;;;8.80;7.80;;;;;22.03;72.34;99572.63;4976834;28;8860;-59
2023/08/04 10:49:40;;;;;;;;;7.60;6.60;;;;;22.26;72.58;99569.56;4976125;28;8836;-60
2023/08/04 10:52:09;;;;;;;;;4.80;4.80;;;;;22.76;70.74;99569.06;4975869;28;8840;-61
2023/08/04 10:54:36;;;;;;;;;4.80;3.60;;;;;23.04;69.95;99572.34;4975922;28;8893;-60
2023/08/04 10:57:04;;;;;;;;;5.80;5.00;;;;;23.13;70.18;99580.09;4976386;28;8840;-60
2023/08/04 10:59:32;;;;;;;;;6.20;6.20;;;;;23.04;70.37;99584.06;4975253;28;8891;-61
2023/08/04 11:02:00;;;;;;;;;6.20;5.60;;;;;22.85;70.77;99574.03;4975029;28;9511;-60
2023/08/04 11:04:29;;;;;;;;;8.20;8.20;;;;;22.67;71.53;99586.56;4974039;28;8869;-61
2023/08/04 11:06:56;;;;;;;;;11.60;9.00;;;;;22.56;71.91;99579.06;4974509;28;8852;-59
2023/08/04 11:09:24;;;;;;;;;7.00;5.80;;;;;22.48;72.25;99581.97;4975413;28;8871;-60
2023/08/04 11:11:52;;;;;;;;;9.20;6.40;;;;;22.50;71.73;99574.44;4975242;28;8859;-59
2023/08/04 11:14:20;;;;;;;;;9.00;8.00;;;;;22.49;71.87;99572.78;4974747;28;9503;-60
2023/08/04 11:16:49;;;;;;;;;4.80;4.80;;;;;22.46;71.73;99578.63;4974065;28;8841;-59
2023/08/04 11:19:17;;;;;;;;;8.00;6.80;;;;;22.46;72.43;99579.44;4973820;28;8845;-59
2023/08/04 11:21:45;;;;;;;;;8.00;8.00;;;;;22.52;72.12;99583.22;4975577;28;8821;-61
2023/08/04 11:24:13;;;;;;;;;6.20;6.20;;;;;22.57;71.74;99575.28;4975796;28;8832;-60
2023/08/04 11:26:41;;;;;;;;;8.00;7.20;;;;;22.57;71.76;99584.28;4974262;28;8856;-60
2023/08/04 11:29:10;;;;;;;;;4.40;4.40;;;;;22.67;71.76;99573.00;4974592;28;8848;-60
2023/08/04 11:31:38;;;;;;;;;5.20;5.00;;;;;22.83;71.05;99588.91;4973227;28;8959;-62
2023/08/04 11:34:06;;;;;;;;;5.00;4.80;;;;;22.95;70.58;99579.91;4974715;28;8849;-60
2023/08/04 11:36:34;;;;;;;;;1.40;1.20;;;;;23.29;69.72;99584.28;4974068;28;8927;-59